Latest Weather Observations for Adelaide

IDS60801

Issued at 11:01 pm CST Friday 31 July 2015 (issued every 30 minutes, with the page automatically refreshed every 10 minutes)

About weather observations | Map of weather stations | Latest weather observations for SA | Other Formats
Station Details ID: 023090 Name: KENT TOWN Lat: -34.92 Lon: 138.62 Height: 48.0 m
Data from the previous 72 hours. | See also: Recent months at Adelaide
Date/Time
CST
Temp
°C
App
Temp
°C
Dew
Point
Rel
Hum
%
Delta-T
°C
Wind Press
QNH
hPa
Press
MSL
hPa
Rain
since 9 am
mm
Dir
 
Spd
km/h
Gust
km/h
Spd
kts
Gust
kts
31/11:00pm 13.2 11.2 10.1 81 1.6 N 11 15 6 8 1014.3 - 0.0
31/10:30pm 13.8 11.8 8.6 71 2.6 N 9 15 5 8 1014.2 - 0.0
31/10:00pm 13.5 11.8 8.5 72 2.5 NNE 7 9 4 5 1014.4 - 0.0
31/09:30pm 12.9 12.6 8.7 75 2.1 CALM 0 0 0 0 1014.3 - 0.0
31/09:00pm 12.7 12.3 8.3 74 2.2 CALM 0 0 0 0 1014.6 1014.7 0.0
31/08:30pm 12.1 11.9 8.9 81 1.6 CALM 0 0 0 0 1014.8 - 0.0
31/08:00pm 11.9 11.7 9.1 83 1.4 CALM 0 0 0 0 1014.6 - 0.0
31/07:30pm 12.1 12.0 9.5 84 1.3 CALM 0 0 0 0 1014.8 - 0.0
31/07:00pm 12.5 12.3 8.9 79 1.8 CALM 0 0 0 0 1014.8 - 0.0
31/06:30pm 13.3 13.0 8.5 72 2.4 CALM 0 0 0 0 1014.7 - 0.0
31/06:00pm 13.9 12.3 8.1 68 2.9 N 6 7 3 4 1014.8 1014.9 0.0
31/05:30pm 14.3 12.8 8.3 67 3.0 N 6 9 3 5 1014.9 - 0.0
31/05:00pm 14.7 13.1 7.9 63 3.4 NNW 6 9 3 5 1015.2 - 0.0
31/04:30pm 15.0 13.2 7.8 62 3.6 WNW 7 15 4 8 1015.6 - 0.0
31/04:00pm 15.2 12.5 7.3 59 3.9 NW 11 15 6 8 1015.8 - 0.0
31/03:30pm 15.6 12.5 7.1 57 4.2 NW 13 22 7 12 1016.1 - 0.0
31/03:00pm 15.7 12.8 6.7 55 4.4 NNW 11 19 6 10 1016.0 1016.1 0.0
31/02:30pm 15.6 12.3 6.3 54 4.5 NNW 13 22 7 12 1016.3 - 0.0
31/02:00pm 15.5 11.7 5.9 52 4.6 NNW 15 24 8 13 1017.0 - 0.0
31/01:30pm 15.2 11.5 6.3 55 4.3 NNW 15 24 8 13 1017.4 - 0.0
31/01:00pm 14.3 11.2 5.6 56 4.1 N 11 19 6 10 1017.9 - 0.0
31/12:30pm 14.3 10.6 4.6 52 4.5 NNW 13 20 7 11 1018.8 - 0.0
31/12:00pm 14.1 10.4 4.6 52 4.4 N 13 20 7 11 1019.6 1019.7 0.0
31/11:30am 13.3 9.6 4.3 54 4.1 N 13 20 7 11 1020.3 - 0.0
31/11:00am 13.3 10.1 4.9 57 3.9 N 11 19 6 10 1020.6 - 0.0
31/10:30am 12.0 9.2 5.0 62 3.2 N 9 15 5 8 1021.0 - 0.0
31/10:00am 10.9 8.0 4.7 65 2.8 NNE 9 15 5 8 1021.3 - 0.0
31/09:30am 9.5 7.1 4.3 70 2.3 NE 6 7 3 4 1021.6 - 0.0
31/09:00am 7.7 5.7 4.5 80 1.4 NE 4 13 2 7 1022.0 1022.1 0.0
31/08:30am 6.1 4.0 4.0 86 0.9 N 4 9 2 5 1022.0 - 0.0
31/08:00am 5.4 3.6 3.7 89 0.7 N 2 7 1 4 1022.2 - 0.0
31/07:30am 4.6 2.7 2.9 89 0.7 E 2 7 1 4 1022.2 - 0.0
31/07:00am 3.4 1.9 2.9 97 0.2 CALM 0 0 0 0 1022.0 - 0.0
31/06:30am 3.4 1.9 2.9 97 0.2 CALM 0 0 0 0 1021.8 - 0.0
31/06:00am 3.5 2.0 2.8 95 0.3 CALM 0 6 0 3 1021.6 1021.7 0.0
31/05:30am 3.8 2.4 3.3 97 0.2 CALM 0 0 0 0 1021.6 - 0.0
31/05:00am 4.2 2.8 3.7 97 0.2 CALM 0 0 0 0 1021.2 - 0.0
31/04:30am 4.7 3.3 3.7 93 0.4 CALM 0 0 0 0 1021.4 - 0.0
31/04:00am 5.1 3.9 4.4 95 0.3 CALM 0 0 0 0 1021.7 - 0.0
31/03:30am 5.6 4.4 4.7 94 0.4 CALM 0 0 0 0 1021.7 - 0.0
31/03:00am 5.8 4.0 5.6 99 0.1 SE 4 7 2 4 1021.9 1022.0 0.0
31/02:30am 6.2 5.2 5.5 95 0.3 CALM 0 0 0 0 1022.3 - 0.0
31/02:00am 7.0 6.1 5.9 93 0.5 CALM 0 0 0 0 1022.1 - 0.0
31/01:30am 7.6 6.1 6.7 94 0.4 ENE 4 7 2 4 1022.3 - 0.0
31/01:00am 8.1 6.6 6.8 91 0.6 N 4 7 2 4 1022.5 - 0.0
31/12:30am 8.2 7.4 6.7 90 0.7 CALM 0 0 0 0 1022.4 - 0.0
31/12:00am 8.5 7.4 7.0 90 0.7 ESE 2 6 1 3 1022.4 1022.5 0.0
 
Date/Time
CST
Temp
°C
App
Temp
°C
Dew
Point
Rel
Hum
%
Delta-T
°C
Wind Press
QNH
hPa
Press
MSL
hPa
Rain
since 9 am
mm
Dir
 
Spd
km/h
Gust
km/h
Spd
kts
Gust
kts
30/11:30pm 8.6 7.7 7.8 95 0.4 SSW 2 7 1 4 1022.4 - 0.0
30/11:00pm 9.1 7.9 8.1 93 0.5 SSW 4 6 2 3 1022.6 - 0.0
30/10:30pm 9.9 8.1 7.8 87 1.0 SSW 7 11 4 6 1022.5 - 0.0
30/10:00pm 10.2 8.6 8.6 90 0.8 WSW 7 11 4 6 1022.5 - 0.0
30/09:30pm 10.9 10.7 9.1 89 0.9 CALM 0 0 0 0 1022.2 - 0.0
30/09:00pm 11.6 10.2 9.4 86 1.1 SSW 7 13 4 7 1021.8 1021.9 0.0
30/08:30pm 11.7 10.5 9.7 87 1.0 SSW 6 9 3 5 1021.4 - 0.0
30/08:00pm 11.7 10.3 9.7 87 1.0 SW 7 13 4 7 1021.2 - 0.0
30/07:30pm 11.9 10.1 9.5 85 1.2 SW 9 17 5 9 1020.8 - 0.0
30/07:00pm 12.1 10.0 9.7 85 1.2 SSW 11 20 6 11 1020.5 - 0.0
30/06:30pm 12.2 9.9 10.5 89 0.9 SSW 13 22 7 12 1020.0 - 0.0
30/06:00pm 12.7 11.7 11.0 89 0.9 WNW 7 11 4 6 1019.4 1019.5 0.0
30/05:30pm 12.6 11.7 10.5 87 1.1 W 6 11 3 6 1019.2 - 0.0
30/05:00pm 13.4 11.3 9.9 79 1.8 WNW 11 17 6 9 1019.0 - 0.0
30/04:30pm 13.8 11.7 9.7 76 2.1 WNW 11 19 6 10 1018.5 - 0.0
30/04:00pm 12.8 10.7 9.9 82 1.5 NW 11 20 6 11 1018.4 - 0.0
30/03:30pm 12.9 10.9 10.0 82 1.5 WNW 11 19 6 10 1018.5 - 0.0
30/03:00pm 13.1 9.2 8.7 74 2.2 NW 19 26 10 14 1018.5 1018.6 0.0
30/02:30pm 13.4 9.1 7.9 69 2.7 W 20 33 11 18 1018.8 - 0.0
30/02:00pm 14.6 10.7 3.6 47 5.0 NW 13 30 7 16 1018.3 - 0.0
30/01:30pm 14.1 9.0 2.9 47 5.0 NNW 19 35 10 19 1018.4 - 0.0
30/01:00pm 13.7 8.4 1.7 44 5.2 NNW 19 35 10 19 1018.7 - 0.0
30/12:30pm 13.8 7.4 0.9 41 5.5 NNW 24 41 13 22 1018.7 - 0.0
30/12:00pm 14.0 7.6 0.9 41 5.6 NW 24 44 13 24 1018.9 1019.0 0.0
30/11:30am 14.0 7.8 -0.2 37 5.9 NW 22 44 12 24 1019.3 - 0.0
30/11:00am 14.2 8.7 0.8 40 5.7 NNW 19 43 10 23 1019.0 - 0.0
30/10:30am 13.1 8.3 0.4 42 5.3 N 15 24 8 13 1019.5 - 0.0
30/10:00am 12.7 7.5 -0.2 41 5.3 N 17 30 9 16 1019.3 - 0.0
30/09:30am 12.1 7.3 -0.1 43 5.0 N 15 30 8 16 1019.6 - 0.0
30/09:00am 11.6 6.0 -0.2 44 4.8 N 19 32 10 17 1019.5 1019.6 0.2
30/08:30am 11.3 6.8 -0.3 44 4.7 NNE 13 20 7 11 1020.0 - 0.2
30/08:00am 10.8 6.3 -0.1 47 4.4 NNE 13 26 7 14 1019.7 - 0.2
30/07:30am 10.5 6.1 0.1 48 4.2 NNE 13 22 7 12 1019.8 - 0.2
30/07:00am 10.2 6.2 0.3 50 4.0 NNE 11 20 6 11 1019.8 - 0.2
30/06:30am 10.0 6.0 0.7 52 3.8 NNE 11 19 6 10 1019.6 - 0.2
30/06:00am 10.4 5.6 0.3 49 4.1 NNE 15 26 8 14 1019.6 1019.7 0.2
30/05:30am 10.3 5.6 0.8 51 3.9 NNE 15 24 8 13 1019.9 - 0.2
30/05:00am 10.5 6.6 1.1 52 3.9 NNE 11 19 6 10 1021.0 - 0.0
30/04:30am 10.9 7.3 0.7 49 4.2 NNE 9 15 5 8 1021.3 - 0.0
30/04:00am 11.2 7.4 -0.5 44 4.7 NNE 9 15 5 8 1021.3 - 0.0
30/03:30am 11.3 7.5 -0.4 44 4.7 NE 9 20 5 11 1021.5 - 0.0
30/03:00am 11.3 7.5 -0.4 44 4.7 NE 9 19 5 10 1022.0 1022.1 0.0
30/02:30am 11.4 7.3 -0.2 44 4.7 NNE 11 19 6 10 1022.7 - 0.0
30/02:00am 11.8 7.9 -1.7 39 5.3 NE 9 17 5 9 1022.9 - 0.0
30/01:30am 11.7 7.9 -0.8 42 5.0 NNE 9 17 5 9 1023.2 - 0.0
30/01:00am 11.6 8.2 -0.3 44 4.8 NE 7 13 4 7 1023.4 - 0.0
30/12:30am 11.5 8.2 -0.1 44 4.7 NE 7 13 4 7 1023.6 - 0.0
30/12:00am 11.5 8.2 -0.1 44 4.7 NE 7 13 4 7 1023.8 1023.9 0.0
 
Date/Time
CST
Temp
°C
App
Temp
°C
Dew
Point
Rel
Hum
%
Delta-T
°C
Wind Press
QNH
hPa
Press
MSL
hPa
Rain
since 9 am
mm
Dir
 
Spd
km/h
Gust
km/h
Spd
kts
Gust
kts
29/11:30pm 11.1 7.9 1.0 50 4.2 NE 7 11 4 6 1024.2 - 0.0
29/11:00pm 10.9 8.0 1.6 52 3.9 NE 6 11 3 6 1024.5 - 0.0
29/10:30pm 10.7 7.7 1.9 54 3.7 ENE 7 13 4 7 1024.6 - 0.0
29/10:00pm 10.2 7.6 3.0 61 3.1 NE 6 9 3 5 1024.8 - 0.0
29/09:30pm 9.8 7.3 3.6 65 2.7 ENE 6 9 3 5 1025.0 - 0.0
29/09:00pm 9.9 7.3 3.4 64 2.8 NE 6 9 3 5 1025.3 1025.4 0.0
29/08:30pm 9.9 7.8 3.7 65 2.7 NNE 4 9 2 5 1025.3 - 0.0
29/08:00pm 9.8 7.3 3.8 66 2.6 ENE 6 9 3 5 1025.5 - 0.0
29/07:30pm 10.4 7.7 3.8 63 2.9 NNE 7 13 4 7 1025.5 - 0.0
29/07:00pm 10.7 7.5 3.1 59 3.3 NNE 9 17 5 9 1025.4 - 0.0
29/06:30pm 10.5 8.0 3.6 62 3.0 ENE 6 9 3 5 1025.4 - 0.0
29/06:00pm 11.3 8.1 3.3 58 3.5 NNE 9 11 5 6 1025.5 1025.6 0.0
29/05:30pm 11.9 8.4 3.3 55 3.8 NNE 11 17 6 9 1025.2 - 0.0
29/05:00pm 12.4 9.2 3.1 53 4.1 NNE 9 19 5 10 1025.5 - 0.0
29/04:30pm 13.0 8.5 2.1 47 4.7 N 15 24 8 13 1025.7 - 0.0
29/04:00pm 12.8 7.9 2.2 48 4.6 N 17 26 9 14 1026.0 - 0.0
29/03:30pm 12.9 8.8 2.0 47 4.7 NNE 13 20 7 11 1026.3 - 0.0
29/03:00pm 13.4 9.2 1.5 44 5.1 N 13 24 7 13 1026.5 1026.6 0.0
29/02:30pm 13.2 9.3 1.2 44 5.1 N 11 20 6 11 1026.7 - 0.0
29/02:00pm 12.6 7.7 1.9 48 4.6 N 17 28 9 15 1027.5 - 0.0
29/01:30pm 12.3 7.8 2.3 50 4.3 N 15 24 8 13 1028.0 - 0.0
29/01:00pm 12.1 7.6 2.3 51 4.2 N 15 24 8 13 1028.8 - 0.0
29/12:30pm 11.9 7.9 2.7 53 4.0 N 13 20 7 11 1029.2 - 0.0
29/12:00pm 11.8 7.8 2.8 54 3.9 N 13 20 7 11 1029.8 1029.9 0.0
29/11:30am 11.1 7.0 2.1 54 3.8 N 13 20 7 11 1030.4 - 0.0
29/11:00am 11.2 7.4 2.0 53 3.9 N 11 19 6 10 1030.1 - 0.0
29/10:30am 11.2 7.0 1.7 52 4.0 N 13 20 7 11 1031.2 - 0.0
29/10:00am 10.8 6.5 0.8 50 4.1 N 13 20 7 11 1031.3 - 0.0
29/09:30am 10.3 6.4 1.0 52 3.8 N 11 17 6 9 1031.6 - 0.0
29/09:00am 9.9 6.0 1.1 54 3.6 N 11 19 6 10 1031.7 1031.9 0.0
29/08:30am 9.8 5.8 0.6 52 3.7 NNE 11 20 6 11 1031.2 - 0.0
29/08:00am 9.2 5.7 1.4 58 3.2 NNE 9 17 5 9 1031.5 - 0.0
29/07:30am 8.6 5.8 2.3 64 2.6 N 6 11 3 6 1031.8 - 0.0
29/07:00am 8.9 5.8 1.6 60 3.0 NE 7 11 4 6 1030.8 - 0.0
29/06:30am 8.9 5.8 1.3 59 3.1 NE 7 15 4 8 1030.6 - 0.0
29/06:00am 8.2 5.4 2.1 65 2.5 ENE 6 9 3 5 1030.5 1030.6 0.0
29/05:30am 8.1 5.3 2.3 67 2.4 NE 6 11 3 6 1030.9 - 0.0
29/05:00am 8.2 5.8 2.1 65 2.5 NNE 4 9 2 5 1031.2 - 0.0
29/04:30am 8.1 5.1 2.3 67 2.4 NNE 7 11 4 6 1031.3 - 0.0
29/04:00am 8.8 5.8 1.7 61 2.9 NNE 7 13 4 7 1031.0 - 0.0
29/03:30am 8.4 5.7 2.4 66 2.5 NE 6 9 3 5 1030.9 - 0.0
29/03:00am 8.9 5.9 2.2 63 2.8 NNE 7 11 4 6 1031.5 1031.6 0.0
29/02:30am 8.9 6.0 2.4 64 2.7 NNE 7 11 4 6 1031.4 - 0.0
29/02:00am 8.9 5.9 2.2 63 2.8 NNE 7 13 4 7 1031.7 - 0.0
29/01:30am 7.0 5.7 4.2 82 1.2 CALM 0 0 0 0 1032.1 - 0.0
29/01:00am 7.0 5.8 4.4 83 1.1 CALM 0 6 0 3 1032.4 - 0.0
29/12:30am 7.5 6.3 4.7 82 1.2 CALM 0 0 0 0 1032.5 - 0.0
29/12:00am 7.4 6.4 5.6 88 0.8 CALM 0 0 0 0 1032.9 1033.1 0.0
 
Date/Time
CST
Temp
°C
App
Temp
°C
Dew
Point
Rel
Hum
%
Delta-T
°C
Wind Press
QNH
hPa
Press
MSL
hPa
Rain
since 9 am
mm
Dir
 
Spd
km/h
Gust
km/h
Spd
kts
Gust
kts
28/11:30pm 7.3 6.4 6.0 91 0.6 CALM 0 0 0 0 1033.3 - 0.0

Other Formats:

Comma delimited format used in spreadsheet applications
http://www.bom.gov.au/fwo/IDS60801/IDS60801.94675.axf

JavaScript Object Notation format (JSON) in row-major order
http://www.bom.gov.au/fwo/IDS60801/IDS60801.94675.json